sensor_id;sensor_type;location;lat;lon;timestamp;P1;durP1;ratioP1;P2;durP2;ratioP2
45676;SDS011;31390;51.186;6.830;2022-12-22T00:02:38;50.97;;;27.00;;
45676;SDS011;31390;51.186;6.830;2022-12-22T00:05:23;41.00;;;25.25;;
45676;SDS011;31390;51.186;6.830;2022-12-22T00:08:08;78.15;;;32.67;;
45676;SDS011;31390;51.186;6.830;2022-12-22T00:10:54;44.55;;;25.30;;
45676;SDS011;31390;51.186;6.830;2022-12-22T00:13:40;46.03;;;25.55;;
45676;SDS011;31390;51.186;6.830;2022-12-22T00:16:30;40.97;;;23.30;;
45676;SDS011;31390;51.186;6.830;2022-12-22T00:19:16;44.88;;;25.63;;
45676;SDS011;31390;51.186;6.830;2022-12-22T00:22:06;71.57;;;31.88;;
45676;SDS011;31390;51.186;6.830;2022-12-22T00:24:56;113.55;;;42.15;;
45676;SDS011;31390;51.186;6.830;2022-12-22T00:27:41;34.38;;;21.77;;
45676;SDS011;31390;51.186;6.830;2022-12-22T00:30:26;120.03;;;40.05;;
45676;SDS011;31390;51.186;6.830;2022-12-22T00:33:11;34.28;;;20.63;;
45676;SDS011;31390;51.186;6.830;2022-12-22T00:35:57;36.17;;;22.02;;
45676;SDS011;31390;51.186;6.830;2022-12-22T00:38:42;54.88;;;28.67;;
45676;SDS011;31390;51.186;6.830;2022-12-22T00:41:27;65.15;;;32.05;;
45676;SDS011;31390;51.186;6.830;2022-12-22T00:44:12;90.80;;;36.17;;
45676;SDS011;31390;51.186;6.830;2022-12-22T00:46:58;42.92;;;24.38;;
45676;SDS011;31390;51.186;6.830;2022-12-22T00:49:43;47.28;;;24.88;;
45676;SDS011;31390;51.186;6.830;2022-12-22T00:52:30;71.68;;;32.63;;
45676;SDS011;31390;51.186;6.830;2022-12-22T00:55:16;68.88;;;30.75;;
45676;SDS011;31390;51.186;6.830;2022-12-22T00:58:03;80.15;;;34.78;;
45676;SDS011;31390;51.186;6.830;2022-12-22T01:00:50;63.92;;;30.60;;
45676;SDS011;31390;51.186;6.830;2022-12-22T01:03:35;84.82;;;35.17;;
45676;SDS011;31390;51.186;6.830;2022-12-22T01:06:28;38.50;;;23.25;;
45676;SDS011;31390;51.186;6.830;2022-12-22T01:09:14;62.15;;;29.23;;
45676;SDS011;31390;51.186;6.830;2022-12-22T01:11:59;55.88;;;27.88;;
45676;SDS011;31390;51.186;6.830;2022-12-22T01:14:44;92.78;;;37.92;;
45676;SDS011;31390;51.186;6.830;2022-12-22T01:17:29;65.45;;;30.67;;
45676;SDS011;31390;51.186;6.830;2022-12-22T01:20:14;37.38;;;22.10;;
45676;SDS011;31390;51.186;6.830;2022-12-22T01:22:59;37.70;;;22.48;;
45676;SDS011;31390;51.186;6.830;2022-12-22T01:25:44;29.38;;;19.63;;
45676;SDS011;31390;51.186;6.830;2022-12-22T01:28:30;35.25;;;20.70;;
45676;SDS011;31390;51.186;6.830;2022-12-22T01:34:09;69.43;;;29.95;;
45676;SDS011;31390;51.186;6.830;2022-12-22T01:36:54;39.38;;;21.08;;
45676;SDS011;31390;51.186;6.830;2022-12-22T01:39:40;33.20;;;20.05;;
45676;SDS011;31390;51.186;6.830;2022-12-22T01:42:25;46.33;;;22.30;;
45676;SDS011;31390;51.186;6.830;2022-12-22T01:48:08;41.15;;;20.02;;
45676;SDS011;31390;51.186;6.830;2022-12-22T01:50:53;20.35;;;13.57;;
45676;SDS011;31390;51.186;6.830;2022-12-22T01:53:39;36.58;;;17.48;;
45676;SDS011;31390;51.186;6.830;2022-12-22T01:56:24;17.23;;;12.30;;
45676;SDS011;31390;51.186;6.830;2022-12-22T01:59:09;32.35;;;18.08;;
45676;SDS011;31390;51.186;6.830;2022-12-22T02:01:55;53.53;;;21.98;;
45676;SDS011;31390;51.186;6.830;2022-12-22T02:04:41;63.97;;;26.55;;
45676;SDS011;31390;51.186;6.830;2022-12-22T02:13:26;47.72;;;22.40;;
45676;SDS011;31390;51.186;6.830;2022-12-22T02:16:20;46.10;;;22.38;;
45676;SDS011;31390;51.186;6.830;2022-12-22T02:19:22;41.75;;;20.58;;
45676;SDS011;31390;51.186;6.830;2022-12-22T02:22:20;32.45;;;18.42;;
45676;SDS011;31390;51.186;6.830;2022-12-22T02:25:13;41.10;;;21.38;;
45676;SDS011;31390;51.186;6.830;2022-12-22T02:27:59;51.58;;;19.85;;
45676;SDS011;31390;51.186;6.830;2022-12-22T02:30:45;37.15;;;16.70;;
45676;SDS011;31390;51.186;6.830;2022-12-22T02:33:32;15.77;;;11.57;;
45676;SDS011;31390;51.186;6.830;2022-12-22T02:48:05;49.65;;;21.08;;
45676;SDS011;31390;51.186;6.830;2022-12-22T02:51:10;17.45;;;11.30;;
45676;SDS011;31390;51.186;6.830;2022-12-22T02:53:58;34.63;;;16.88;;
45676;SDS011;31390;51.186;6.830;2022-12-22T02:56:43;45.58;;;19.52;;
45676;SDS011;31390;51.186;6.830;2022-12-22T02:59:28;24.08;;;13.65;;
45676;SDS011;31390;51.186;6.830;2022-12-22T03:02:13;28.15;;;15.43;;
45676;SDS011;31390;51.186;6.830;2022-12-22T03:04:58;41.47;;;16.90;;
45676;SDS011;31390;51.186;6.830;2022-12-22T03:07:43;32.20;;;16.63;;
45676;SDS011;31390;51.186;6.830;2022-12-22T03:10:34;26.58;;;14.30;;
45676;SDS011;31390;51.186;6.830;2022-12-22T03:13:19;35.25;;;18.48;;
45676;SDS011;31390;51.186;6.830;2022-12-22T03:16:04;36.28;;;18.40;;
45676;SDS011;31390;51.186;6.830;2022-12-22T03:18:49;27.00;;;15.38;;
45676;SDS011;31390;51.186;6.830;2022-12-22T03:21:34;21.35;;;12.55;;
45676;SDS011;31390;51.186;6.830;2022-12-22T03:24:19;14.45;;;9.50;;
45676;SDS011;31390;51.186;6.830;2022-12-22T03:27:04;26.75;;;14.25;;
45676;SDS011;31390;51.186;6.830;2022-12-22T03:29:31;20.73;;;11.02;;
45676;SDS011;31390;51.186;6.830;2022-12-22T03:31:57;19.00;;;11.90;;
45676;SDS011;31390;51.186;6.830;2022-12-22T03:34:24;23.60;;;12.00;;
45676;SDS011;31390;51.186;6.830;2022-12-22T03:36:51;20.92;;;11.35;;
45676;SDS011;31390;51.186;6.830;2022-12-22T03:39:17;19.60;;;10.43;;
45676;SDS011;31390;51.186;6.830;2022-12-22T03:41:43;19.05;;;10.50;;
45676;SDS011;31390;51.186;6.830;2022-12-22T03:44:29;21.50;;;11.80;;
45676;SDS011;31390;51.186;6.830;2022-12-22T03:47:14;30.70;;;12.82;;
45676;SDS011;31390;51.186;6.830;2022-12-22T03:49:40;17.88;;;11.30;;
45676;SDS011;31390;51.186;6.830;2022-12-22T03:52:07;22.30;;;11.93;;
45676;SDS011;31390;51.186;6.830;2022-12-22T03:54:33;22.63;;;11.80;;
45676;SDS011;31390;51.186;6.830;2022-12-22T03:57:00;22.20;;;12.10;;
45676;SDS011;31390;51.186;6.830;2022-12-22T03:59:26;16.98;;;10.25;;
45676;SDS011;31390;51.186;6.830;2022-12-22T04:01:53;25.85;;;12.27;;
45676;SDS011;31390;51.186;6.830;2022-12-22T04:04:21;28.02;;;12.93;;
45676;SDS011;31390;51.186;6.830;2022-12-22T04:06:48;25.20;;;12.15;;
45676;SDS011;31390;51.186;6.830;2022-12-22T04:09:14;25.67;;;11.80;;
45676;SDS011;31390;51.186;6.830;2022-12-22T04:11:41;15.18;;;9.02;;
45676;SDS011;31390;51.186;6.830;2022-12-22T04:14:26;22.38;;;11.70;;
45676;SDS011;31390;51.186;6.830;2022-12-22T04:16:58;23.27;;;10.68;;
45676;SDS011;31390;51.186;6.830;2022-12-22T04:19:25;20.40;;;11.15;;
45676;SDS011;31390;51.186;6.830;2022-12-22T04:21:52;24.67;;;12.25;;
45676;SDS011;31390;51.186;6.830;2022-12-22T04:24:19;39.28;;;15.45;;
45676;SDS011;31390;51.186;6.830;2022-12-22T04:26:45;33.92;;;15.73;;
45676;SDS011;31390;51.186;6.830;2022-12-22T04:29:12;44.90;;;19.13;;
45676;SDS011;31390;51.186;6.830;2022-12-22T04:31:38;34.45;;;15.63;;
45676;SDS011;31390;51.186;6.830;2022-12-22T04:34:05;34.22;;;17.05;;
45676;SDS011;31390;51.186;6.830;2022-12-22T04:36:31;70.20;;;24.67;;
45676;SDS011;31390;51.186;6.830;2022-12-22T04:38:58;31.48;;;16.08;;
45676;SDS011;31390;51.186;6.830;2022-12-22T04:41:25;39.70;;;17.50;;
45676;SDS011;31390;51.186;6.830;2022-12-22T04:43:51;39.88;;;18.25;;
45676;SDS011;31390;51.186;6.830;2022-12-22T04:46:18;39.17;;;18.95;;
45676;SDS011;31390;51.186;6.830;2022-12-22T04:48:44;71.15;;;23.85;;
45676;SDS011;31390;51.186;6.830;2022-12-22T04:51:11;41.50;;;17.52;;
45676;SDS011;31390;51.186;6.830;2022-12-22T04:53:37;66.35;;;24.90;;
45676;SDS011;31390;51.186;6.830;2022-12-22T04:56:05;52.33;;;22.30;;
45676;SDS011;31390;51.186;6.830;2022-12-22T04:58:33;55.33;;;21.35;;
45676;SDS011;31390;51.186;6.830;2022-12-22T05:01:10;34.47;;;19.15;;
45676;SDS011;31390;51.186;6.830;2022-12-22T05:03:36;64.07;;;24.55;;
45676;SDS011;31390;51.186;6.830;2022-12-22T05:06:03;50.05;;;20.92;;
45676;SDS011;31390;51.186;6.830;2022-12-22T05:08:30;73.75;;;25.65;;
45676;SDS011;31390;51.186;6.830;2022-12-22T05:10:56;61.60;;;21.38;;
45676;SDS011;31390;51.186;6.830;2022-12-22T05:13:23;54.35;;;19.25;;
45676;SDS011;31390;51.186;6.830;2022-12-22T05:15:49;44.03;;;19.58;;
45676;SDS011;31390;51.186;6.830;2022-12-22T05:18:16;86.43;;;27.13;;
45676;SDS011;31390;51.186;6.830;2022-12-22T05:20:42;61.05;;;22.83;;
45676;SDS011;31390;51.186;6.830;2022-12-22T05:23:09;63.58;;;22.40;;
45676;SDS011;31390;51.186;6.830;2022-12-22T05:25:35;58.38;;;22.90;;
45676;SDS011;31390;51.186;6.830;2022-12-22T05:28:02;64.68;;;24.67;;
45676;SDS011;31390;51.186;6.830;2022-12-22T05:30:28;93.95;;;31.15;;
45676;SDS011;31390;51.186;6.830;2022-12-22T05:32:55;55.47;;;23.48;;
45676;SDS011;31390;51.186;6.830;2022-12-22T05:35:21;83.63;;;28.85;;
45676;SDS011;31390;51.186;6.830;2022-12-22T05:37:48;134.30;;;35.28;;
45676;SDS011;31390;51.186;6.830;2022-12-22T05:40:14;81.57;;;29.85;;
45676;SDS011;31390;51.186;6.830;2022-12-22T05:42:41;102.15;;;35.38;;
45676;SDS011;31390;51.186;6.830;2022-12-22T05:45:15;86.55;;;31.27;;
45676;SDS011;31390;51.186;6.830;2022-12-22T05:47:42;86.93;;;30.00;;
45676;SDS011;31390;51.186;6.830;2022-12-22T05:50:09;78.45;;;29.98;;
45676;SDS011;31390;51.186;6.830;2022-12-22T05:52:36;71.88;;;26.92;;
45676;SDS011;31390;51.186;6.830;2022-12-22T05:55:03;114.57;;;34.65;;
45676;SDS011;31390;51.186;6.830;2022-12-22T05:57:30;110.22;;;33.45;;
45676;SDS011;31390;51.186;6.830;2022-12-22T05:59:56;78.55;;;27.25;;
45676;SDS011;31390;51.186;6.830;2022-12-22T06:02:23;131.57;;;35.97;;
45676;SDS011;31390;51.186;6.830;2022-12-22T06:04:50;91.53;;;29.05;;
45676;SDS011;31390;51.186;6.830;2022-12-22T06:07:16;123.45;;;36.35;;
45676;SDS011;31390;51.186;6.830;2022-12-22T06:09:43;176.63;;;43.22;;
45676;SDS011;31390;51.186;6.830;2022-12-22T06:12:09;178.00;;;42.90;;
45676;SDS011;31390;51.186;6.830;2022-12-22T06:14:36;152.45;;;39.58;;
45676;SDS011;31390;51.186;6.830;2022-12-22T06:17:02;81.47;;;29.63;;
45676;SDS011;31390;51.186;6.830;2022-12-22T06:19:28;201.93;;;42.80;;
45676;SDS011;31390;51.186;6.830;2022-12-22T06:21:55;109.22;;;34.60;;
45676;SDS011;31390;51.186;6.830;2022-12-22T06:24:22;117.72;;;34.00;;
45676;SDS011;31390;51.186;6.830;2022-12-22T06:26:48;185.38;;;44.35;;
45676;SDS011;31390;51.186;6.830;2022-12-22T06:29:14;131.10;;;38.05;;
45676;SDS011;31390;51.186;6.830;2022-12-22T06:31:41;164.30;;;37.45;;
45676;SDS011;31390;51.186;6.830;2022-12-22T06:34:08;120.45;;;33.58;;
45676;SDS011;31390;51.186;6.830;2022-12-22T06:36:35;156.20;;;37.28;;
45676;SDS011;31390;51.186;6.830;2022-12-22T06:39:02;173.10;;;39.78;;
45676;SDS011;31390;51.186;6.830;2022-12-22T06:41:28;268.20;;;50.25;;
45676;SDS011;31390;51.186;6.830;2022-12-22T06:44:13;67.05;;;24.58;;
45676;SDS011;31390;51.186;6.830;2022-12-22T06:46:40;72.82;;;23.67;;
45676;SDS011;31390;51.186;6.830;2022-12-22T06:49:07;101.63;;;30.05;;
45676;SDS011;31390;51.186;6.830;2022-12-22T06:51:33;169.30;;;35.13;;
45676;SDS011;31390;51.186;6.830;2022-12-22T06:54:00;201.70;;;39.30;;
45676;SDS011;31390;51.186;6.830;2022-12-22T06:56:26;177.25;;;34.20;;
45676;SDS011;31390;51.186;6.830;2022-12-22T06:58:53;76.93;;;29.55;;
45676;SDS011;31390;51.186;6.830;2022-12-22T07:01:20;211.90;;;35.78;;
45676;SDS011;31390;51.186;6.830;2022-12-22T07:03:46;147.07;;;38.35;;
45676;SDS011;31390;51.186;6.830;2022-12-22T07:06:13;159.48;;;37.03;;
45676;SDS011;31390;51.186;6.830;2022-12-22T07:08:39;106.25;;;29.65;;
45676;SDS011;31390;51.186;6.830;2022-12-22T07:11:06;75.10;;;23.80;;
45676;SDS011;31390;51.186;6.830;2022-12-22T07:13:32;101.35;;;28.27;;
45676;SDS011;31390;51.186;6.830;2022-12-22T07:16:00;294.38;;;46.72;;
45676;SDS011;31390;51.186;6.830;2022-12-22T07:18:28;385.30;;;54.10;;
45676;SDS011;31390;51.186;6.830;2022-12-22T07:20:55;26.65;;;13.25;;
45676;SDS011;31390;51.186;6.830;2022-12-22T07:23:22;293.45;;;45.95;;
45676;SDS011;31390;51.186;6.830;2022-12-22T07:25:49;97.47;;;31.33;;
45676;SDS011;31390;51.186;6.830;2022-12-22T07:28:15;126.63;;;36.60;;
45676;SDS011;31390;51.186;6.830;2022-12-22T07:30:47;77.93;;;26.50;;
45676;SDS011;31390;51.186;6.830;2022-12-22T07:33:21;127.03;;;36.10;;
45676;SDS011;31390;51.186;6.830;2022-12-22T07:35:51;273.55;;;59.15;;
45676;SDS011;31390;51.186;6.830;2022-12-22T07:38:25;160.70;;;44.22;;
45676;SDS011;31390;51.186;6.830;2022-12-22T07:40:55;263.35;;;56.50;;
45676;SDS011;31390;51.186;6.830;2022-12-22T07:43:29;152.75;;;43.65;;
45676;SDS011;31390;51.186;6.830;2022-12-22T07:45:56;181.13;;;48.88;;
45676;SDS011;31390;51.186;6.830;2022-12-22T07:48:22;112.88;;;39.33;;
45676;SDS011;31390;51.186;6.830;2022-12-22T07:51:18;166.13;;;46.13;;
45676;SDS011;31390;51.186;6.830;2022-12-22T07:53:44;121.47;;;40.15;;
45676;SDS011;31390;51.186;6.830;2022-12-22T07:56:11;125.63;;;40.03;;
45676;SDS011;31390;51.186;6.830;2022-12-22T07:58:37;128.00;;;40.25;;
45676;SDS011;31390;51.186;6.830;2022-12-22T08:01:04;126.68;;;41.00;;
45676;SDS011;31390;51.186;6.830;2022-12-22T08:03:30;69.63;;;29.35;;
45676;SDS011;31390;51.186;6.830;2022-12-22T08:05:57;159.70;;;46.78;;
45676;SDS011;31390;51.186;6.830;2022-12-22T08:08:23;107.25;;;38.00;;
45676;SDS011;31390;51.186;6.830;2022-12-22T08:10:50;186.35;;;52.53;;
45676;SDS011;31390;51.186;6.830;2022-12-22T08:13:16;181.48;;;50.05;;
45676;SDS011;31390;51.186;6.830;2022-12-22T08:15:43;94.05;;;35.85;;
45676;SDS011;31390;51.186;6.830;2022-12-22T08:18:09;151.98;;;47.10;;
45676;SDS011;31390;51.186;6.830;2022-12-22T08:20:36;230.20;;;58.67;;
45676;SDS011;31390;51.186;6.830;2022-12-22T08:23:02;160.88;;;50.30;;
45676;SDS011;31390;51.186;6.830;2022-12-22T08:25:29;121.95;;;43.30;;
45676;SDS011;31390;51.186;6.830;2022-12-22T08:27:57;74.15;;;34.53;;
45676;SDS011;31390;51.186;6.830;2022-12-22T08:30:24;152.82;;;49.20;;
45676;SDS011;31390;51.186;6.830;2022-12-22T08:32:50;226.68;;;55.95;;
45676;SDS011;31390;51.186;6.830;2022-12-22T08:35:17;107.90;;;41.72;;
45676;SDS011;31390;51.186;6.830;2022-12-22T08:37:44;278.17;;;67.90;;
45676;SDS011;31390;51.186;6.830;2022-12-22T08:40:12;298.42;;;72.75;;
45676;SDS011;31390;51.186;6.830;2022-12-22T08:42:39;258.38;;;64.95;;
45676;SDS011;31390;51.186;6.830;2022-12-22T08:45:07;118.68;;;44.30;;
45676;SDS011;31390;51.186;6.830;2022-12-22T08:47:34;278.45;;;69.75;;
45676;SDS011;31390;51.186;6.830;2022-12-22T08:50:01;303.92;;;69.63;;
45676;SDS011;31390;51.186;6.830;2022-12-22T08:52:28;162.52;;;51.33;;
45676;SDS011;31390;51.186;6.830;2022-12-22T08:54:55;138.98;;;49.97;;
45676;SDS011;31390;51.186;6.830;2022-12-22T08:57:21;340.65;;;79.28;;
45676;SDS011;31390;51.186;6.830;2022-12-22T08:59:48;444.00;;;89.55;;
45676;SDS011;31390;51.186;6.830;2022-12-22T09:02:14;215.90;;;62.28;;
45676;SDS011;31390;51.186;6.830;2022-12-22T09:04:41;219.93;;;65.07;;
45676;SDS011;31390;51.186;6.830;2022-12-22T09:07:08;267.85;;;72.55;;
45676;SDS011;31390;51.186;6.830;2022-12-22T09:09:34;151.43;;;52.78;;
45676;SDS011;31390;51.186;6.830;2022-12-22T09:12:01;368.92;;;82.25;;
45676;SDS011;31390;51.186;6.830;2022-12-22T09:14:29;122.97;;;45.80;;
45676;SDS011;31390;51.186;6.830;2022-12-22T09:16:56;167.50;;;55.70;;
45676;SDS011;31390;51.186;6.830;2022-12-22T09:19:22;122.85;;;47.22;;
45676;SDS011;31390;51.186;6.830;2022-12-22T09:21:49;202.32;;;59.85;;
45676;SDS011;31390;51.186;6.830;2022-12-22T09:24:15;226.75;;;62.22;;
45676;SDS011;31390;51.186;6.830;2022-12-22T09:26:42;325.40;;;71.65;;
45676;SDS011;31390;51.186;6.830;2022-12-22T09:29:09;345.65;;;78.90;;
45676;SDS011;31390;51.186;6.830;2022-12-22T09:31:35;250.88;;;69.82;;
45676;SDS011;31390;51.186;6.830;2022-12-22T09:34:02;431.60;;;94.35;;
45676;SDS011;31390;51.186;6.830;2022-12-22T09:36:29;258.17;;;65.35;;
45676;SDS011;31390;51.186;6.830;2022-12-22T09:38:56;141.57;;;47.20;;
45676;SDS011;31390;51.186;6.830;2022-12-22T09:41:25;358.55;;;79.40;;
45676;SDS011;31390;51.186;6.830;2022-12-22T09:43:54;236.60;;;63.88;;
45676;SDS011;31390;51.186;6.830;2022-12-22T09:46:22;271.40;;;63.15;;
45676;SDS011;31390;51.186;6.830;2022-12-22T09:48:51;363.20;;;82.32;;
45676;SDS011;31390;51.186;6.830;2022-12-22T09:51:17;215.65;;;62.53;;
45676;SDS011;31390;51.186;6.830;2022-12-22T09:53:58;253.60;;;67.28;;
45676;SDS011;31390;51.186;6.830;2022-12-22T09:56:26;264.13;;;68.63;;
45676;SDS011;31390;51.186;6.830;2022-12-22T09:58:53;174.85;;;53.22;;
45676;SDS011;31390;51.186;6.830;2022-12-22T10:06:54;131.80;;;45.45;;
45676;SDS011;31390;51.186;6.830;2022-12-22T10:09:24;104.80;;;41.47;;
45676;SDS011;31390;51.186;6.830;2022-12-22T10:12:13;180.75;;;53.85;;
45676;SDS011;31390;51.186;6.830;2022-12-22T10:14:41;209.27;;;57.50;;
45676;SDS011;31390;51.186;6.830;2022-12-22T10:19:41;158.90;;;53.72;;
45676;SDS011;31390;51.186;6.830;2022-12-22T10:22:18;193.90;;;56.47;;
45676;SDS011;31390;51.186;6.830;2022-12-22T10:24:45;251.10;;;67.20;;
45676;SDS011;31390;51.186;6.830;2022-12-22T10:27:12;343.77;;;79.32;;
45676;SDS011;31390;51.186;6.830;2022-12-22T10:29:39;231.23;;;62.40;;
45676;SDS011;31390;51.186;6.830;2022-12-22T10:32:12;244.82;;;66.20;;
45676;SDS011;31390;51.186;6.830;2022-12-22T10:35:00;259.85;;;68.63;;
45676;SDS011;31390;51.186;6.830;2022-12-22T10:37:30;303.33;;;73.13;;
45676;SDS011;31390;51.186;6.830;2022-12-22T10:39:58;193.27;;;56.38;;
45676;SDS011;31390;51.186;6.830;2022-12-22T10:42:24;260.83;;;65.00;;
45676;SDS011;31390;51.186;6.830;2022-12-22T10:44:51;334.73;;;77.18;;
45676;SDS011;31390;51.186;6.830;2022-12-22T10:47:18;257.23;;;64.93;;
45676;SDS011;31390;51.186;6.830;2022-12-22T10:49:47;248.65;;;60.28;;
45676;SDS011;31390;51.186;6.830;2022-12-22T10:52:18;286.75;;;69.68;;
45676;SDS011;31390;51.186;6.830;2022-12-22T10:55:37;275.88;;;66.47;;
45676;SDS011;31390;51.186;6.830;2022-12-22T10:57:44;154.07;;;51.40;;
45676;SDS011;31390;51.186;6.830;2022-12-22T11:00:21;259.95;;;65.93;;
45676;SDS011;31390;51.186;6.830;2022-12-22T11:02:53;159.23;;;52.55;;
45676;SDS011;31390;51.186;6.830;2022-12-22T11:05:19;81.05;;;40.05;;
45676;SDS011;31390;51.186;6.830;2022-12-22T11:07:46;285.58;;;70.53;;
45676;SDS011;31390;51.186;6.830;2022-12-22T11:15:30;232.38;;;62.17;;
45676;SDS011;31390;51.186;6.830;2022-12-22T11:23:36;72.80;;;37.97;;
45676;SDS011;31390;51.186;6.830;2022-12-22T11:26:12;97.22;;;44.70;;
45676;SDS011;31390;51.186;6.830;2022-12-22T11:29:01;275.70;;;71.15;;
45676;SDS011;31390;51.186;6.830;2022-12-22T11:31:38;275.23;;;68.85;;
45676;SDS011;31390;51.186;6.830;2022-12-22T11:34:29;266.02;;;70.68;;
45676;SDS011;31390;51.186;6.830;2022-12-22T11:39:35;195.38;;;60.78;;
45676;SDS011;31390;51.186;6.830;2022-12-22T11:42:20;105.25;;;43.42;;
45676;SDS011;31390;51.186;6.830;2022-12-22T11:45:02;159.68;;;52.20;;
45676;SDS011;31390;51.186;6.830;2022-12-22T11:50:25;103.10;;;43.08;;
45676;SDS011;31390;51.186;6.830;2022-12-22T11:53:30;128.90;;;47.58;;
45676;SDS011;31390;51.186;6.830;2022-12-22T11:59:22;122.50;;;46.08;;
45676;SDS011;31390;51.186;6.830;2022-12-22T12:06:40;160.05;;;52.20;;
45676;SDS011;31390;51.186;6.830;2022-12-22T12:12:20;77.82;;;38.03;;
45676;SDS011;31390;51.186;6.830;2022-12-22T12:17:28;116.43;;;47.50;;
45676;SDS011;31390;51.186;6.830;2022-12-22T12:20:04;55.85;;;31.83;;
45676;SDS011;31390;51.186;6.830;2022-12-22T12:30:52;95.65;;;39.17;;
45676;SDS011;31390;51.186;6.830;2022-12-22T12:38:43;41.08;;;28.77;;
45676;SDS011;31390;51.186;6.830;2022-12-22T12:44:04;65.28;;;34.25;;
45676;SDS011;31390;51.186;6.830;2022-12-22T12:51:56;35.50;;;24.17;;
45676;SDS011;31390;51.186;6.830;2022-12-22T12:56:59;45.80;;;24.58;;
45676;SDS011;31390;51.186;6.830;2022-12-22T13:10:23;52.80;;;25.20;;
45676;SDS011;31390;51.186;6.830;2022-12-22T13:12:51;33.55;;;20.55;;
45676;SDS011;31390;51.186;6.830;2022-12-22T13:17:54;37.88;;;19.75;;
45676;SDS011;31390;51.186;6.830;2022-12-22T13:20:25;20.10;;;14.52;;
45676;SDS011;31390;51.186;6.830;2022-12-22T13:22:53;31.33;;;18.80;;
45676;SDS011;31390;51.186;6.830;2022-12-22T13:25:21;20.58;;;15.80;;
45676;SDS011;31390;51.186;6.830;2022-12-22T13:27:49;34.15;;;19.92;;
45676;SDS011;31390;51.186;6.830;2022-12-22T13:30:17;47.33;;;24.13;;
45676;SDS011;31390;51.186;6.830;2022-12-22T13:32:44;59.45;;;26.83;;
45676;SDS011;31390;51.186;6.830;2022-12-22T13:35:14;58.55;;;27.85;;
45676;SDS011;31390;51.186;6.830;2022-12-22T13:38:01;24.27;;;17.58;;
45676;SDS011;31390;51.186;6.830;2022-12-22T13:40:34;38.50;;;21.30;;
45676;SDS011;31390;51.186;6.830;2022-12-22T13:43:14;24.88;;;18.15;;
45676;SDS011;31390;51.186;6.830;2022-12-22T13:45:51;31.30;;;19.52;;
45676;SDS011;31390;51.186;6.830;2022-12-22T13:48:19;32.47;;;20.40;;
45676;SDS011;31390;51.186;6.830;2022-12-22T13:50:52;25.27;;;18.08;;
45676;SDS011;31390;51.186;6.830;2022-12-22T13:53:32;24.73;;;18.05;;
45676;SDS011;31390;51.186;6.830;2022-12-22T13:56:23;40.55;;;23.00;;
45676;SDS011;31390;51.186;6.830;2022-12-22T13:58:50;43.22;;;21.95;;
45676;SDS011;31390;51.186;6.830;2022-12-22T14:01:18;35.08;;;20.77;;
45676;SDS011;31390;51.186;6.830;2022-12-22T14:03:46;24.05;;;15.77;;
45676;SDS011;31390;51.186;6.830;2022-12-22T14:06:33;31.52;;;18.23;;
45676;SDS011;31390;51.186;6.830;2022-12-22T14:11:37;35.90;;;20.08;;
45676;SDS011;31390;51.186;6.830;2022-12-22T14:14:07;43.10;;;21.88;;
45676;SDS011;31390;51.186;6.830;2022-12-22T14:16:34;40.13;;;21.40;;
45676;SDS011;31390;51.186;6.830;2022-12-22T14:19:09;41.97;;;22.45;;
45676;SDS011;31390;51.186;6.830;2022-12-22T14:21:36;42.80;;;22.58;;
45676;SDS011;31390;51.186;6.830;2022-12-22T14:24:03;42.25;;;21.65;;
45676;SDS011;31390;51.186;6.830;2022-12-22T14:26:29;25.30;;;16.35;;
45676;SDS011;31390;51.186;6.830;2022-12-22T14:28:56;42.70;;;22.48;;
45676;SDS011;31390;51.186;6.830;2022-12-22T14:31:23;37.35;;;20.38;;
45676;SDS011;31390;51.186;6.830;2022-12-22T14:33:56;36.58;;;22.23;;
45676;SDS011;31390;51.186;6.830;2022-12-22T14:36:37;42.78;;;22.48;;
45676;SDS011;31390;51.186;6.830;2022-12-22T14:39:09;50.67;;;23.60;;
45676;SDS011;31390;51.186;6.830;2022-12-22T14:41:49;40.13;;;20.70;;
45676;SDS011;31390;51.186;6.830;2022-12-22T14:44:22;37.75;;;21.10;;
45676;SDS011;31390;51.186;6.830;2022-12-22T14:49:34;43.08;;;22.02;;
45676;SDS011;31390;51.186;6.830;2022-12-22T14:52:13;25.15;;;17.83;;
45676;SDS011;31390;51.186;6.830;2022-12-22T14:54:44;25.02;;;17.30;;
45676;SDS011;31390;51.186;6.830;2022-12-22T14:57:12;23.58;;;16.70;;
45676;SDS011;31390;51.186;6.830;2022-12-22T14:59:56;34.47;;;20.75;;
45676;SDS011;31390;51.186;6.830;2022-12-22T15:02:27;26.80;;;16.75;;
45676;SDS011;31390;51.186;6.830;2022-12-22T15:07:47;28.80;;;18.95;;
45676;SDS011;31390;51.186;6.830;2022-12-22T15:10:36;38.13;;;22.20;;
45676;SDS011;31390;51.186;6.830;2022-12-22T15:13:04;34.45;;;21.10;;
45676;SDS011;31390;51.186;6.830;2022-12-22T15:15:31;38.22;;;22.55;;
45676;SDS011;31390;51.186;6.830;2022-12-22T15:17:58;45.70;;;24.10;;
45676;SDS011;31390;51.186;6.830;2022-12-22T15:20:25;36.50;;;21.77;;
45676;SDS011;31390;51.186;6.830;2022-12-22T15:22:52;35.67;;;20.80;;
45676;SDS011;31390;51.186;6.830;2022-12-22T15:25:20;35.58;;;21.45;;
45676;SDS011;31390;51.186;6.830;2022-12-22T15:27:47;34.78;;;20.02;;
45676;SDS011;31390;51.186;6.830;2022-12-22T15:30:15;86.07;;;30.33;;
45676;SDS011;31390;51.186;6.830;2022-12-22T15:32:42;74.10;;;31.63;;
45676;SDS011;31390;51.186;6.830;2022-12-22T15:35:16;55.85;;;25.90;;
45676;SDS011;31390;51.186;6.830;2022-12-22T15:37:43;50.20;;;24.88;;
45676;SDS011;31390;51.186;6.830;2022-12-22T15:40:17;44.63;;;23.75;;
45676;SDS011;31390;51.186;6.830;2022-12-22T15:42:44;40.80;;;23.67;;
45676;SDS011;31390;51.186;6.830;2022-12-22T15:45:11;39.60;;;23.38;;
45676;SDS011;31390;51.186;6.830;2022-12-22T15:47:39;63.42;;;29.08;;
45676;SDS011;31390;51.186;6.830;2022-12-22T15:50:06;76.10;;;32.47;;
45676;SDS011;31390;51.186;6.830;2022-12-22T15:52:33;61.35;;;29.17;;
45676;SDS011;31390;51.186;6.830;2022-12-22T15:54:59;61.97;;;29.10;;
45676;SDS011;31390;51.186;6.830;2022-12-22T15:57:26;64.53;;;30.50;;
45676;SDS011;31390;51.186;6.830;2022-12-22T15:59:52;94.25;;;34.80;;
45676;SDS011;31390;51.186;6.830;2022-12-22T16:02:19;63.58;;;30.13;;
45676;SDS011;31390;51.186;6.830;2022-12-22T16:04:46;122.45;;;39.03;;
45676;SDS011;31390;51.186;6.830;2022-12-22T16:07:12;81.28;;;32.08;;
45676;SDS011;31390;51.186;6.830;2022-12-22T16:09:42;68.90;;;29.92;;
45676;SDS011;31390;51.186;6.830;2022-12-22T16:12:11;88.20;;;33.10;;
45676;SDS011;31390;51.186;6.830;2022-12-22T16:14:38;59.65;;;26.52;;
45676;SDS011;31390;51.186;6.830;2022-12-22T16:17:19;63.53;;;28.77;;
45676;SDS011;31390;51.186;6.830;2022-12-22T16:19:46;44.15;;;22.15;;
45676;SDS011;31390;51.186;6.830;2022-12-22T16:22:13;60.33;;;26.40;;
45676;SDS011;31390;51.186;6.830;2022-12-22T16:24:41;94.60;;;34.42;;
45676;SDS011;31390;51.186;6.830;2022-12-22T16:27:08;45.15;;;23.13;;
45676;SDS011;31390;51.186;6.830;2022-12-22T16:29:36;47.03;;;22.52;;
45676;SDS011;31390;51.186;6.830;2022-12-22T16:32:27;78.85;;;27.08;;
45676;SDS011;31390;51.186;6.830;2022-12-22T16:34:50;57.22;;;25.10;;
45676;SDS011;31390;51.186;6.830;2022-12-22T16:37:17;52.67;;;23.77;;